KOLV/OLV METAR and TAF weather

Enter ICAO airport designator
Station Type Date Time Source
KOLV METAR 2019/04/19 08:15 UTC NOAA

KOLV 190815Z AUTO 33011G17KT 3SM BR OVC012 07/07 A2964 RMK A01


Station Type Date Time Source
KOLV Decoded METAR 2019/04/19 08:15 UTC NOAA

Olive Branch, Olive Branch Airport, MS, United States (KOLV) 34-58-44N 089-47-13W
Apr 19, 2019 - 04:15 AM EDT / 2019.04.19 0815 UTC
Wind: from the NNW (330 degrees) at 13 MPH (11 KT) gusting to 20 MPH (17 KT):0
Visibility: 3 mile(s):0
Sky conditions: overcast
Weather: mist
Temperature: 44 F (7 C)
Dew Point: 44 F (7 C)
Relative Humidity: 100%
Pressure (altimeter): 29.64 in. Hg (1003 hPa)
ob: KOLV 190815Z AUTO 33011G17KT 3SM BR OVC012 07/07 A2964 RMK A01
cycle: 8

Station Type Date Time Source
KOLV TAF UTC NOAA

Error!

Example: see airport list